createdAt,value
2022-11-30T00:01:22.564Z,60.60
2022-11-30T00:03:53.937Z,53.83
2022-11-30T00:06:23.531Z,53.40
2022-11-30T00:08:55.685Z,65.13
2022-11-30T00:11:24.763Z,48.23
2022-11-30T00:13:52.176Z,51.97
2022-11-30T00:16:19.515Z,53.50
2022-11-30T00:18:46.736Z,53.50
2022-11-30T00:21:15.767Z,56.60
2022-11-30T00:23:46.169Z,58.13
2022-11-30T00:26:18.133Z,51.30
2022-11-30T00:28:46.181Z,50.77
2022-11-30T00:31:16.660Z,52.80
2022-11-30T00:33:44.131Z,50.63
2022-11-30T00:36:17.837Z,51.67
2022-11-30T00:38:46.254Z,51.47
2022-11-30T00:41:14.020Z,49.57
2022-11-30T00:43:41.572Z,52.00
2022-11-30T00:46:09.969Z,65.53
2022-11-30T00:48:41.257Z,52.63
2022-11-30T00:51:11.212Z,47.77
2022-11-30T00:53:39.362Z,56.13
2022-11-30T00:56:07.946Z,51.23
2022-11-30T00:58:35.165Z,48.43
2022-11-30T01:01:03.274Z,48.10
2022-11-30T01:03:30.736Z,51.67
2022-11-30T01:06:09.580Z,54.30
2022-11-30T01:08:36.925Z,58.43
2022-11-30T01:11:18.008Z,49.77
2022-11-30T01:13:45.305Z,46.97
2022-11-30T01:16:20.281Z,46.43
2022-11-30T01:18:48.134Z,45.20
2022-11-30T01:21:19.565Z,42.70
2022-11-30T01:23:47.788Z,46.80
2022-11-30T01:26:16.184Z,51.17
2022-11-30T01:28:44.690Z,51.03
2022-11-30T01:31:14.785Z,44.23
2022-11-30T01:33:43.175Z,46.95
2022-11-30T01:36:15.619Z,44.63
2022-11-30T01:38:52.823Z,45.80
2022-11-30T01:41:32.543Z,44.50
2022-11-30T01:44:05.766Z,63.17
2022-11-30T01:46:46.404Z,52.37
2022-11-30T01:49:23.491Z,49.78
2022-11-30T01:52:15.181Z,50.07
2022-11-30T01:55:03.101Z,51.63
2022-11-30T01:57:59.729Z,50.23
2022-11-30T02:00:27.060Z,47.13
2022-11-30T02:03:11.453Z,48.57
2022-11-30T02:05:40.948Z,60.70
2022-11-30T02:08:14.052Z,48.47
2022-11-30T02:10:51.934Z,62.03
2022-11-30T02:14:01.820Z,48.30
2022-11-30T02:17:21.032Z,80.70
2022-11-30T02:20:46.307Z,52.40
2022-11-30T02:23:40.977Z,56.10
2022-11-30T02:26:14.870Z,60.10
2022-11-30T02:29:18.014Z,65.57
2022-11-30T02:32:21.238Z,57.13
2022-11-30T02:34:50.370Z,57.70
2022-11-30T02:37:19.680Z,51.73
2022-11-30T02:39:46.910Z,51.20
2022-11-30T02:42:16.265Z,48.33
2022-11-30T02:44:50.673Z,57.53
2022-11-30T02:47:24.567Z,56.17
2022-11-30T02:50:27.957Z,48.90
2022-11-30T02:52:56.057Z,46.47
2022-11-30T02:55:23.824Z,48.87
2022-11-30T02:57:50.988Z,55.33
2022-11-30T03:00:19.085Z,53.50
2022-11-30T03:02:46.371Z,53.77
2022-11-30T03:05:13.655Z,81.17
2022-11-30T03:07:40.887Z,49.17
2022-11-30T03:10:09.335Z,45.73
2022-11-30T03:12:36.982Z,43.50
2022-11-30T03:15:06.004Z,43.17
2022-11-30T03:17:33.400Z,51.13
2022-11-30T03:20:00.730Z,44.17
2022-11-30T03:22:27.934Z,43.97
2022-11-30T03:24:55.161Z,44.37
2022-11-30T03:27:22.979Z,43.23
2022-11-30T03:29:50.224Z,41.77
2022-11-30T03:32:18.475Z,40.80
2022-11-30T03:34:46.039Z,44.03
2022-11-30T03:37:13.587Z,45.27
2022-11-30T03:39:40.803Z,45.80
2022-11-30T03:42:08.077Z,51.00
2022-11-30T03:44:35.853Z,63.90
2022-11-30T03:47:03.061Z,42.03
2022-11-30T03:49:30.286Z,46.70
2022-11-30T03:51:57.484Z,47.33
2022-11-30T03:54:24.662Z,46.73
2022-11-30T03:56:51.855Z,47.93
2022-11-30T03:59:18.954Z,58.97
2022-11-30T04:01:46.195Z,48.47
2022-11-30T04:04:13.670Z,46.97
2022-11-30T04:06:40.816Z,55.73
2022-11-30T04:09:09.955Z,44.00
2022-11-30T04:11:37.286Z,48.67
2022-11-30T04:14:04.506Z,47.07
2022-11-30T04:16:31.852Z,48.43
2022-11-30T04:18:59.372Z,54.50
2022-11-30T04:21:26.850Z,55.97
2022-11-30T04:23:54.039Z,57.20
2022-11-30T04:26:21.292Z,51.67
2022-11-30T04:28:48.582Z,51.73
2022-11-30T04:31:17.014Z,52.83
2022-11-30T04:33:44.338Z,49.57
2022-11-30T04:36:20.312Z,51.13
2022-11-30T04:38:49.482Z,52.10
2022-11-30T04:41:16.787Z,49.40
2022-11-30T04:43:43.931Z,51.20
2022-11-30T04:46:11.530Z,68.00
2022-11-30T04:48:38.998Z,55.80
2022-11-30T04:51:08.503Z,48.60
2022-11-30T04:53:37.533Z,51.57
2022-11-30T04:56:10.037Z,57.80
2022-11-30T04:58:38.827Z,64.93
2022-11-30T05:01:07.256Z,69.23
2022-11-30T05:03:35.277Z,50.93
2022-11-30T05:06:03.470Z,49.93
2022-11-30T05:08:30.808Z,60.53
2022-11-30T05:10:58.760Z,55.50
2022-11-30T05:13:26.490Z,77.20
2022-11-30T05:15:54.172Z,53.47
2022-11-30T05:18:21.983Z,54.40
2022-11-30T05:20:51.507Z,53.20
2022-11-30T05:23:19.879Z,51.97
2022-11-30T05:25:47.536Z,64.93
2022-11-30T05:28:15.221Z,62.57
2022-11-30T05:30:43.569Z,54.57
2022-11-30T05:33:11.289Z,48.97
2022-11-30T05:35:38.916Z,50.07
2022-11-30T05:38:06.138Z,49.03
2022-11-30T05:40:33.791Z,52.17
2022-11-30T05:43:03.068Z,47.27
2022-11-30T05:45:31.094Z,48.83
2022-11-30T05:47:58.453Z,53.47
2022-11-30T05:50:25.770Z,45.57
2022-11-30T05:52:58.208Z,44.97
2022-11-30T05:55:25.786Z,43.13
2022-11-30T05:57:53.573Z,49.37
2022-11-30T06:00:22.088Z,47.10
2022-11-30T06:02:49.893Z,41.20
2022-11-30T06:05:17.473Z,41.67
2022-11-30T06:07:44.949Z,41.77
2022-11-30T06:10:12.708Z,41.13
2022-11-30T06:12:40.046Z,42.40
2022-11-30T06:15:08.897Z,42.97
2022-11-30T06:17:38.007Z,42.13
2022-11-30T06:20:07.001Z,44.40
2022-11-30T06:22:34.492Z,41.13
2022-11-30T06:25:01.824Z,45.87
2022-11-30T06:27:32.484Z,48.37
2022-11-30T06:29:59.895Z,44.70
2022-11-30T06:32:27.067Z,42.97
2022-11-30T06:34:54.269Z,42.77
2022-11-30T06:37:21.514Z,53.43
2022-11-30T06:42:37.419Z,43.63
2022-11-30T06:45:07.081Z,38.87
2022-11-30T06:47:34.322Z,40.27
2022-11-30T06:50:01.530Z,47.67
2022-11-30T06:52:32.155Z,44.03
2022-11-30T06:54:59.595Z,52.75
2022-11-30T06:57:28.967Z,57.93
2022-11-30T06:59:57.113Z,45.07
2022-11-30T07:02:24.810Z,47.23
2022-11-30T07:04:52.059Z,60.53
2022-11-30T07:07:19.383Z,46.97
2022-11-30T07:09:46.854Z,47.30
2022-11-30T07:12:14.103Z,48.17
2022-11-30T07:14:41.508Z,52.43
2022-11-30T07:17:08.664Z,45.03
2022-11-30T07:19:35.858Z,53.40
2022-11-30T07:22:03.402Z,41.97
2022-11-30T07:24:49.652Z,44.80
2022-11-30T07:27:17.061Z,44.23
2022-11-30T07:29:44.283Z,40.53
2022-11-30T07:32:11.488Z,42.00
2022-11-30T07:34:38.715Z,43.63
2022-11-30T07:37:06.180Z,46.93
2022-11-30T07:39:33.446Z,56.73
2022-11-30T07:42:00.720Z,42.90
2022-11-30T07:44:28.070Z,38.77
2022-11-30T07:46:55.286Z,40.93
2022-11-30T07:49:22.620Z,42.03
2022-11-30T07:51:49.905Z,40.93
2022-11-30T07:54:17.112Z,39.67
2022-11-30T07:56:44.472Z,43.50
2022-11-30T07:59:11.707Z,38.97
2022-11-30T08:01:38.981Z,39.90
2022-11-30T08:04:06.424Z,39.33
2022-11-30T08:06:33.772Z,37.70
2022-11-30T08:09:04.397Z,42.53
2022-11-30T08:11:36.422Z,39.85
2022-11-30T08:14:04.652Z,42.47
2022-11-30T08:16:38.293Z,40.77
2022-11-30T08:19:05.595Z,38.93
2022-11-30T08:21:32.933Z,45.30
2022-11-30T08:24:00.434Z,40.77
2022-11-30T08:26:33.885Z,42.63
2022-11-30T08:29:02.277Z,43.63
2022-11-30T08:31:36.154Z,44.73
2022-11-30T08:34:11.336Z,39.27
2022-11-30T08:36:40.093Z,40.40
2022-11-30T08:39:09.178Z,41.70
2022-11-30T08:41:36.660Z,42.03
2022-11-30T08:44:03.927Z,39.53
2022-11-30T08:47:01.964Z,41.83
2022-11-30T08:49:23.002Z,42.83
2022-11-30T08:59:40.026Z,35.50
2022-11-30T09:02:10.514Z,38.80
2022-11-30T09:04:37.733Z,40.58
2022-11-30T09:07:05.331Z,39.83
2022-11-30T09:09:32.751Z,36.67
2022-11-30T09:11:59.919Z,40.83
2022-11-30T09:14:27.197Z,35.60
2022-11-30T09:16:56.101Z,34.83
2022-11-30T09:19:23.460Z,34.03
2022-11-30T09:21:52.177Z,35.80
2022-11-30T09:24:21.031Z,33.97
2022-11-30T09:26:48.760Z,32.27
2022-11-30T09:29:16.084Z,33.27
2022-11-30T09:31:43.442Z,33.87
2022-11-30T09:34:12.411Z,35.90
2022-11-30T09:36:39.702Z,36.07
2022-11-30T09:39:09.401Z,39.30
2022-11-30T09:42:10.093Z,36.87
2022-11-30T09:44:40.272Z,34.33
2022-11-30T09:48:03.166Z,37.58
2022-11-30T09:50:38.315Z,38.60
2022-11-30T09:53:29.501Z,42.03
2022-11-30T09:55:59.005Z,38.13
2022-11-30T09:58:52.156Z,38.10
2022-11-30T10:01:21.871Z,37.20
2022-11-30T10:03:49.545Z,37.83
2022-11-30T10:06:49.186Z,33.63
2022-11-30T10:09:53.201Z,37.70
2022-11-30T10:13:00.850Z,35.63
2022-11-30T10:16:01.424Z,35.93
2022-11-30T10:19:02.686Z,35.35
2022-11-30T10:22:09.085Z,36.23
2022-11-30T10:24:54.957Z,34.60
2022-11-30T10:27:54.627Z,34.20
2022-11-30T10:30:25.384Z,33.90
2022-11-30T10:35:49.448Z,35.33
2022-11-30T10:38:21.359Z,34.13
2022-11-30T10:41:03.401Z,34.17
2022-11-30T10:43:45.625Z,35.10
2022-11-30T10:46:24.691Z,33.83
2022-11-30T10:49:06.734Z,35.07
2022-11-30T10:51:37.774Z,35.07
2022-11-30T10:54:16.473Z,32.00
2022-11-30T10:56:43.934Z,32.27
2022-11-30T10:59:26.329Z,32.80
2022-11-30T11:01:53.865Z,32.03
2022-11-30T11:04:27.420Z,36.60
2022-11-30T11:07:13.750Z,37.87
2022-11-30T11:09:50.753Z,36.10
2022-11-30T11:12:30.998Z,35.70
2022-11-30T11:15:24.822Z,37.70
2022-11-30T11:17:54.044Z,35.17
2022-11-30T11:20:44.448Z,35.07
2022-11-30T11:23:41.126Z,33.40
2022-11-30T11:26:27.846Z,35.93
2022-11-30T11:28:59.577Z,35.93
2022-11-30T11:31:46.370Z,35.23
2022-11-30T11:34:31.750Z,38.07
2022-11-30T11:37:19.643Z,38.40
2022-11-30T11:40:08.839Z,39.67
2022-11-30T11:42:49.279Z,37.83
2022-11-30T11:45:35.007Z,33.65
2022-11-30T11:48:08.269Z,34.83
2022-11-30T11:51:05.630Z,33.37
2022-11-30T11:53:52.998Z,34.20
2022-11-30T11:56:36.888Z,32.97
2022-11-30T11:59:10.057Z,31.73
2022-11-30T12:02:03.689Z,34.70
2022-11-30T12:04:45.776Z,32.60
2022-11-30T12:07:34.937Z,35.30
2022-11-30T12:13:24.923Z,35.23
2022-11-30T12:16:29.348Z,36.67
2022-11-30T12:19:27.667Z,33.80
2022-11-30T12:22:51.605Z,35.67
2022-11-30T12:25:31.105Z,33.80
2022-11-30T12:28:31.881Z,35.50
2022-11-30T12:31:12.244Z,35.70
2022-11-30T12:33:48.132Z,35.95
2022-11-30T12:36:28.784Z,33.70
2022-11-30T12:39:10.249Z,32.78
2022-11-30T12:42:20.414Z,35.03
2022-11-30T12:45:22.115Z,33.60
2022-11-30T12:48:18.351Z,32.23
2022-11-30T12:51:29.831Z,32.03
2022-11-30T12:54:53.489Z,33.93
2022-11-30T12:58:00.791Z,31.70
2022-11-30T13:00:50.067Z,33.53
2022-11-30T13:03:45.371Z,33.37
2022-11-30T13:06:23.308Z,31.77
2022-11-30T13:09:21.454Z,34.70
2022-11-30T13:11:56.474Z,34.40
2022-11-30T13:14:27.352Z,32.97
2022-11-30T13:17:08.050Z,36.60
2022-11-30T13:19:50.616Z,30.65
2022-11-30T13:22:48.338Z,32.07
2022-11-30T13:26:23.846Z,30.63
2022-11-30T13:29:07.854Z,28.17
2022-11-30T13:32:17.710Z,29.37
2022-11-30T13:35:15.124Z,29.40
2022-11-30T13:37:42.426Z,30.57
2022-11-30T13:40:22.536Z,29.40
2022-11-30T13:42:56.025Z,33.40
2022-11-30T13:45:41.501Z,29.87
2022-11-30T13:48:43.519Z,30.53
2022-11-30T13:51:11.849Z,29.23
2022-11-30T13:53:41.081Z,31.93
2022-11-30T13:56:33.912Z,31.47
2022-11-30T13:59:23.511Z,30.30
2022-11-30T14:02:42.122Z,33.70
2022-11-30T14:05:18.185Z,32.43
2022-11-30T14:08:10.358Z,32.37
2022-11-30T14:10:46.558Z,34.63
2022-11-30T14:13:14.319Z,32.70
2022-11-30T14:15:44.300Z,31.33
2022-11-30T14:18:19.926Z,30.85
2022-11-30T14:21:00.992Z,31.27
2022-11-30T14:23:47.102Z,32.13
2022-11-30T14:26:20.823Z,29.07
2022-11-30T14:29:08.575Z,32.40
2022-11-30T14:32:00.146Z,29.43
2022-11-30T14:34:46.143Z,27.93
2022-11-30T14:37:33.255Z,27.77
2022-11-30T14:40:07.925Z,24.97
2022-11-30T14:42:36.171Z,27.83
2022-11-30T14:45:04.223Z,25.13
2022-11-30T14:47:36.201Z,28.63
2022-11-30T14:50:06.293Z,25.33
2022-11-30T14:52:52.867Z,26.48
2022-11-30T14:55:33.864Z,26.40
2022-11-30T14:58:07.057Z,25.87
2022-11-30T15:00:42.574Z,26.90
2022-11-30T15:03:38.949Z,27.37
2022-11-30T15:06:08.232Z,23.10
2022-11-30T15:09:04.394Z,24.70
2022-11-30T15:11:31.935Z,27.40
2022-11-30T15:14:10.735Z,27.83
2022-11-30T15:16:46.301Z,26.63
2022-11-30T15:19:34.734Z,26.17
2022-11-30T15:22:02.136Z,27.40
2022-11-30T15:24:29.969Z,29.33
2022-11-30T15:27:10.693Z,26.67
2022-11-30T15:29:47.321Z,26.57
2022-11-30T15:32:23.284Z,28.03
2022-11-30T15:34:57.702Z,30.37
2022-11-30T15:37:41.227Z,31.10
2022-11-30T15:40:10.952Z,28.40
2022-11-30T15:42:40.552Z,29.83
2022-11-30T15:45:25.548Z,33.30
2022-11-30T15:47:54.782Z,31.70
2022-11-30T15:50:31.146Z,33.13
2022-11-30T15:53:22.953Z,32.53
2022-11-30T15:56:15.764Z,31.10
2022-11-30T15:58:59.693Z,29.60
2022-11-30T16:01:28.213Z,31.47
2022-11-30T16:03:55.380Z,30.23
2022-11-30T16:06:26.476Z,32.43
2022-11-30T16:08:54.914Z,33.47
2022-11-30T16:11:22.641Z,32.87
2022-11-30T16:13:49.998Z,30.90
2022-11-30T16:16:37.616Z,33.73
2022-11-30T16:19:04.993Z,34.80
2022-11-30T16:21:32.364Z,33.03
2022-11-30T16:23:59.668Z,31.40
2022-11-30T16:26:49.920Z,34.43
2022-11-30T16:29:14.352Z,29.47
2022-11-30T16:31:41.673Z,34.07
2022-11-30T16:34:11.962Z,32.27
2022-11-30T16:36:39.378Z,30.98
2022-11-30T16:39:06.767Z,31.57
2022-11-30T16:41:36.083Z,31.17
2022-11-30T16:44:08.745Z,26.77
2022-11-30T16:46:37.065Z,25.53
2022-11-30T16:49:04.280Z,26.27
2022-11-30T16:51:34.852Z,26.20
2022-11-30T16:54:02.306Z,25.25
2022-11-30T16:56:29.706Z,24.70
2022-11-30T16:58:56.988Z,25.77
2022-11-30T17:01:38.635Z,25.73
2022-11-30T17:04:26.564Z,25.23
2022-11-30T17:07:00.432Z,24.87
2022-11-30T17:09:30.484Z,26.20
2022-11-30T17:11:58.080Z,24.37
2022-11-30T17:14:25.399Z,25.30
2022-11-30T17:16:52.831Z,24.93
2022-11-30T17:19:20.165Z,26.23
2022-11-30T17:21:48.536Z,25.83
2022-11-30T17:24:16.322Z,24.60
2022-11-30T17:26:43.777Z,25.03
2022-11-30T17:29:11.086Z,25.30
2022-11-30T17:31:38.420Z,22.57
2022-11-30T17:34:08.598Z,20.13
2022-11-30T17:36:35.978Z,23.33
2022-11-30T17:39:08.377Z,23.00
2022-11-30T17:41:35.750Z,24.77
2022-11-30T17:44:03.364Z,24.37
2022-11-30T17:46:30.887Z,24.17
2022-11-30T17:48:58.241Z,23.47
2022-11-30T17:51:25.618Z,22.37
2022-11-30T17:53:52.938Z,24.67
2022-11-30T17:56:20.344Z,23.70
2022-11-30T17:58:49.358Z,24.93
2022-11-30T18:01:22.270Z,26.37
2022-11-30T18:03:50.411Z,25.30
2022-11-30T18:06:18.710Z,25.57
2022-11-30T18:08:46.418Z,27.13
2022-11-30T18:11:20.925Z,25.13
2022-11-30T18:13:51.708Z,26.03
2022-11-30T18:16:25.920Z,26.53
2022-11-30T18:18:54.103Z,25.40
2022-11-30T18:21:23.691Z,25.73
2022-11-30T18:23:53.247Z,26.27
2022-11-30T18:26:24.160Z,26.47
2022-11-30T18:31:25.051Z,23.67
2022-11-30T18:34:01.681Z,27.47
2022-11-30T18:36:29.389Z,28.30
2022-11-30T18:38:57.213Z,25.73
2022-11-30T18:41:26.895Z,27.37
2022-11-30T18:43:54.871Z,29.40
2022-11-30T18:46:22.603Z,26.13
2022-11-30T18:48:51.738Z,28.33
2022-11-30T18:51:25.905Z,26.97
2022-11-30T18:54:04.819Z,28.67
2022-11-30T18:56:36.009Z,27.63
2022-11-30T18:59:07.837Z,26.83
2022-11-30T19:01:36.216Z,28.37
2022-11-30T19:04:10.368Z,30.00
2022-11-30T19:06:39.954Z,29.50
2022-11-30T19:09:13.347Z,28.27
2022-11-30T19:11:42.713Z,32.17
2022-11-30T19:14:14.028Z,30.57
2022-11-30T19:16:42.082Z,31.13
2022-11-30T19:19:14.177Z,30.90
2022-11-30T19:21:45.273Z,31.13
2022-11-30T19:24:12.655Z,28.43
2022-11-30T19:26:40.438Z,30.50
2022-11-30T19:29:08.421Z,30.93
2022-11-30T19:31:35.782Z,29.40
2022-11-30T19:34:09.081Z,30.73
2022-11-30T19:36:39.755Z,32.80
2022-11-30T19:39:07.116Z,33.73
2022-11-30T19:41:34.731Z,28.87
2022-11-30T19:44:03.914Z,32.33
2022-11-30T19:46:33.424Z,32.23
2022-11-30T19:49:02.186Z,31.30
2022-11-30T19:51:31.363Z,31.00
2022-11-30T19:54:01.821Z,32.87
2022-11-30T19:56:34.287Z,30.77
2022-11-30T19:59:05.604Z,29.03
2022-11-30T20:01:34.508Z,28.93
2022-11-30T20:04:02.472Z,30.13
2022-11-30T20:06:37.044Z,29.57
2022-11-30T20:09:06.492Z,29.90
2022-11-30T20:11:34.358Z,31.97
2022-11-30T20:14:01.928Z,30.10
2022-11-30T20:16:29.536Z,30.13
2022-11-30T20:19:03.229Z,28.03
2022-11-30T20:21:34.139Z,28.13
2022-11-30T20:24:07.461Z,28.27
2022-11-30T20:26:39.801Z,29.67
2022-11-30T20:29:13.058Z,27.33
2022-11-30T20:31:41.255Z,30.87
2022-11-30T20:34:09.205Z,28.90
2022-11-30T20:36:37.574Z,30.07
2022-11-30T20:39:06.655Z,27.43
2022-11-30T20:41:34.217Z,30.07
2022-11-30T20:44:01.876Z,25.73
2022-11-30T20:46:33.183Z,31.40
2022-11-30T20:49:02.706Z,27.77
2022-11-30T20:51:33.475Z,28.47
2022-11-30T20:54:08.793Z,27.50
2022-11-30T20:56:37.507Z,32.33
2022-11-30T20:59:19.520Z,29.40
2022-11-30T21:01:47.372Z,31.23
2022-11-30T21:04:14.725Z,31.80
2022-11-30T21:06:45.615Z,34.00
2022-11-30T21:09:15.206Z,30.83
2022-11-30T21:11:43.353Z,31.77
2022-11-30T21:14:10.907Z,29.03
2022-11-30T21:16:38.488Z,30.43
2022-11-30T21:19:06.269Z,30.80
2022-11-30T21:21:35.757Z,29.90
2022-11-30T21:24:07.716Z,29.00
2022-11-30T21:26:41.512Z,28.20
2022-11-30T21:29:14.170Z,29.53
2022-11-30T21:31:42.645Z,29.27
2022-11-30T21:34:10.215Z,30.40
2022-11-30T21:36:37.694Z,29.70
2022-11-30T21:39:09.325Z,32.23
2022-11-30T21:41:39.221Z,31.43
2022-11-30T21:44:10.803Z,28.92
2022-11-30T21:46:38.827Z,31.47
2022-11-30T21:49:07.071Z,28.57
2022-11-30T21:51:34.504Z,30.50
2022-11-30T21:54:05.904Z,29.57
2022-11-30T21:56:38.739Z,29.07
2022-11-30T21:59:08.734Z,29.47
2022-11-30T22:01:40.024Z,29.23
2022-11-30T22:04:09.777Z,30.63
2022-11-30T22:06:39.892Z,30.08
2022-11-30T22:09:16.553Z,30.45
2022-11-30T22:11:45.759Z,29.20
2022-11-30T22:14:16.486Z,28.77
2022-11-30T22:19:11.970Z,28.30
2022-11-30T22:21:40.772Z,28.87
2022-11-30T22:24:12.981Z,29.08
2022-11-30T22:29:22.498Z,27.20
2022-11-30T22:34:20.557Z,30.53
2022-11-30T22:36:48.492Z,29.27
2022-11-30T22:39:22.520Z,30.67
2022-11-30T22:41:55.108Z,27.27
2022-11-30T22:44:24.657Z,30.77
2022-11-30T22:46:52.115Z,30.97
2022-11-30T22:49:21.538Z,30.07
2022-11-30T22:51:50.024Z,30.00
2022-11-30T22:54:18.008Z,31.73
2022-11-30T22:56:46.746Z,27.47
2022-11-30T22:59:15.680Z,31.13
2022-11-30T23:01:46.786Z,29.60
2022-11-30T23:04:20.156Z,31.33
2022-11-30T23:06:49.336Z,28.90
2022-11-30T23:09:20.423Z,27.43
2022-11-30T23:11:48.233Z,30.43
2022-11-30T23:14:16.642Z,27.43
2022-11-30T23:16:45.488Z,29.30
2022-11-30T23:19:13.999Z,29.47
2022-11-30T23:21:44.963Z,27.33
2022-11-30T23:24:20.835Z,26.67
2022-11-30T23:26:48.733Z,25.87
2022-11-30T23:29:17.731Z,27.97
2022-11-30T23:31:46.792Z,26.70
2022-11-30T23:34:22.325Z,29.27
2022-11-30T23:36:50.797Z,28.53
2022-11-30T23:39:20.229Z,28.10
2022-11-30T23:41:48.442Z,28.73
2022-11-30T23:44:15.900Z,29.90
2022-11-30T23:46:43.336Z,29.40
2022-11-30T23:49:14.293Z,28.17
2022-11-30T23:51:42.581Z,26.47
2022-11-30T23:54:09.970Z,27.73
2022-11-30T23:56:37.221Z,27.83
2022-11-30T23:59:04.406Z,29.33
